Time;durP1;ratioP1;P1;durP2;ratioP2;P2;SDS_P1;SDS_P2;PMS_P1;PMS_P2;Temp;Humidity;BMP_temperature;BMP_pressure;BME280_temperature;BME280_humidity;BME280_pressure;Samples;Min_cycle;Max_cycle;Signal;HPM_P1;HPM_P2
2022/11/21 00:01:31;0.00;0.00;0.62;0.00;0.00;0.62;2.30;1.60;;;21.40;22.80;;;;;;2235779;62;20382;-69
2022/11/21 00:04:16;0.00;0.00;0.62;0.00;0.00;0.62;2.10;1.40;;;21.40;22.90;;;;;;2236490;62;20883;-69
2022/11/21 00:07:01;0.00;0.00;0.62;0.00;0.00;0.62;1.70;1.10;;;21.40;22.80;;;;;;2235404;62;20362;-69
2022/11/21 00:09:45;0.00;0.00;0.62;0.00;0.00;0.62;2.17;1.30;;;21.40;22.90;;;;;;2235806;62;20413;-69
2022/11/21 00:12:30;0.00;0.00;0.62;0.00;0.00;0.62;2.07;1.50;;;21.40;22.80;;;;;;2236712;62;20434;-68
2022/11/21 00:15:14;0.00;0.00;0.62;0.00;0.00;0.62;2.10;1.40;;;21.40;22.80;;;;;;2234882;62;20370;-69
2022/11/21 00:18:02;0.00;0.00;0.62;0.00;0.00;0.62;2.03;1.40;;;21.40;22.80;;;;;;2236407;62;20391;-70
2022/11/21 00:20:48;0.00;0.00;0.62;0.00;0.00;0.62;1.87;1.60;;;21.40;22.90;;;;;;2235986;62;20471;-68
2022/11/21 00:23:32;0.00;0.00;0.62;0.00;0.00;0.62;2.60;1.57;;;21.40;22.90;;;;;;2235848;62;20442;-67
2022/11/21 00:26:17;0.00;0.00;0.62;0.00;0.00;0.62;2.10;1.40;;;21.40;22.90;;;;;;2236244;62;20379;-69
2022/11/21 00:29:02;0.00;0.00;0.62;0.00;0.00;0.62;2.13;1.57;;;21.40;22.90;;;;;;2235383;62;20401;-67
2022/11/21 00:31:46;0.00;0.00;0.62;0.00;0.00;0.62;1.60;1.10;;;21.40;22.90;;;;;;2235880;62;20783;-68
2022/11/21 00:34:33;0.00;0.00;0.62;0.00;0.00;0.62;1.87;1.17;;;21.40;22.90;;;;;;2236622;62;20487;-68
2022/11/21 00:37:18;0.00;0.00;0.62;0.00;0.00;0.62;1.80;1.23;;;21.40;22.90;;;;;;2234662;62;20402;-68
2022/11/21 00:40:03;0.00;0.00;0.62;0.00;0.00;0.62;1.70;1.20;;;21.30;22.90;;;;;;2236634;62;20379;-68
2022/11/21 00:42:48;0.00;0.00;0.62;0.00;0.00;0.62;1.80;1.30;;;21.40;22.90;;;;;;2236419;61;20413;-68
2022/11/21 00:45:33;0.00;0.00;0.62;0.00;0.00;0.62;1.90;1.10;;;21.30;22.90;;;;;;2235274;62;20466;-68
2022/11/21 00:48:18;0.00;0.00;0.62;0.00;0.00;0.62;1.60;1.13;;;21.30;22.90;;;;;;2236542;62;20390;-67
2022/11/21 00:51:05;0.00;0.00;0.62;0.00;0.00;0.62;1.90;1.43;;;21.30;22.90;;;;;;2235135;62;20381;-67
2022/11/21 00:53:50;0.00;0.00;0.62;0.00;0.00;0.62;1.90;1.17;;;21.30;22.90;;;;;;2236134;62;20988;-69
2022/11/21 00:56:34;0.00;0.00;0.62;0.00;0.00;0.62;1.67;1.07;;;21.30;22.90;;;;;;2236554;62;20389;-69
2022/11/21 00:59:19;0.00;0.00;0.62;0.00;0.00;0.62;2.10;1.03;;;21.30;22.90;;;;;;2234789;62;20351;-68
2022/11/21 01:02:04;0.00;0.00;0.62;0.00;0.00;0.62;2.17;1.53;;;21.30;22.90;;;;;;2236615;62;20491;-70
2022/11/21 01:04:49;0.00;0.00;0.62;0.00;0.00;0.62;2.00;1.37;;;21.30;22.90;;;;;;2233443;62;20970;-63
2022/11/21 01:07:35;0.00;0.00;0.62;0.00;0.00;0.62;2.00;1.57;;;21.30;22.90;;;;;;2233972;62;20391;-65
2022/11/21 01:10:20;0.00;0.00;0.62;0.00;0.00;0.62;1.90;1.30;;;21.30;23.00;;;;;;2236350;62;20402;-68
2022/11/21 01:13:05;0.00;0.00;0.62;0.00;0.00;0.62;2.43;1.20;;;21.30;23.10;;;;;;2235368;62;20836;-64
2022/11/21 01:15:49;0.00;0.00;0.62;0.00;0.00;0.62;1.90;1.30;;;21.30;23.10;;;;;;2235535;62;20478;-63
2022/11/21 01:18:35;0.00;0.00;0.62;0.00;0.00;0.62;2.07;1.23;;;21.30;23.20;;;;;;2235914;62;20367;-67
2022/11/21 01:21:22;0.00;0.00;0.62;0.00;0.00;0.62;1.77;1.27;;;21.30;23.20;;;;;;2234865;62;20491;-68
2022/11/21 01:24:11;0.00;0.00;0.62;0.00;0.00;0.62;2.87;1.57;;;21.30;23.10;;;;;;2236257;62;20878;-74
2022/11/21 01:26:56;0.00;0.00;0.62;0.00;0.00;0.62;2.23;1.60;;;21.30;23.00;;;;;;2236161;62;20394;-70
2022/11/21 01:29:40;0.00;0.00;0.62;0.00;0.00;0.62;2.43;1.80;;;21.30;22.90;;;;;;2234637;61;20431;-71
2022/11/21 01:32:25;0.00;0.00;0.62;0.00;0.00;0.62;2.83;2.00;;;21.30;22.70;;;;;;2232965;62;20414;-74
2022/11/21 01:35:09;0.00;0.00;0.62;0.00;0.00;0.62;3.50;2.63;;;21.30;22.60;;;;;;2235818;62;20407;-72
2022/11/21 01:37:55;0.00;0.00;0.62;0.00;0.00;0.62;3.00;2.10;;;21.30;22.40;;;;;;2235844;62;21008;-70
2022/11/21 01:40:40;0.00;0.00;0.62;0.00;0.00;0.62;3.60;2.50;;;21.30;22.40;;;;;;2236282;62;20399;-74
2022/11/21 01:43:25;0.00;0.00;0.62;0.00;0.00;0.62;4.30;3.00;;;21.30;22.30;;;;;;2235174;62;20796;-70
2022/11/21 01:46:13;0.00;0.00;0.62;0.00;0.00;0.62;3.53;2.83;;;21.20;22.10;;;;;;2236263;62;20422;-71
2022/11/21 01:49:03;0.00;0.00;0.62;0.00;0.00;0.62;4.00;2.80;;;21.20;22.00;;;;;;2236195;62;20421;-74
2022/11/21 01:51:52;0.00;0.00;0.62;0.00;0.00;0.62;3.27;2.90;;;21.20;21.90;;;;;;2235712;62;20866;-71
2022/11/21 01:54:42;0.00;0.00;0.62;0.00;0.00;0.62;3.73;3.10;;;21.20;21.90;;;;;;2237020;62;20445;-71
2022/11/21 01:57:33;0.00;0.00;0.62;0.00;0.00;0.62;5.73;3.60;;;21.20;21.80;;;;;;2236230;62;20438;-71
2022/11/21 02:00:23;0.00;0.00;0.62;0.00;0.00;0.62;3.60;2.90;;;21.20;21.70;;;;;;2236730;62;20743;-74
2022/11/21 02:03:13;0.00;0.00;0.62;0.00;0.00;0.62;4.40;3.83;;;21.20;21.70;;;;;;2233941;62;20898;-74
2022/11/21 02:05:58;0.00;0.00;0.62;0.00;0.00;0.62;3.73;3.33;;;21.10;21.60;;;;;;2235801;62;20414;-72
2022/11/21 02:08:44;0.00;0.00;0.62;0.00;0.00;0.62;3.70;3.07;;;21.10;21.50;;;;;;2237061;62;20401;-70
2022/11/21 02:11:34;0.00;0.00;0.62;0.00;0.00;0.62;3.80;3.40;;;21.10;21.50;;;;;;2233757;62;20774;-72
2022/11/21 02:14:20;0.00;0.00;0.62;0.00;0.00;0.62;4.23;3.50;;;21.10;21.50;;;;;;2236196;62;20443;-73
2022/11/21 02:17:08;0.00;0.00;0.62;0.00;0.00;0.62;3.80;3.23;;;21.10;21.50;;;;;;2236917;62;20390;-74
2022/11/21 02:19:56;0.00;0.00;0.62;0.00;0.00;0.62;4.80;3.50;;;21.10;21.40;;;;;;2235917;62;20402;-72
2022/11/21 02:22:53;0.00;0.00;0.62;0.00;0.00;0.62;4.93;3.93;;;21.00;21.30;;;;;;2236632;62;20362;-74
2022/11/21 02:25:41;0.00;0.00;0.62;0.00;0.00;0.62;4.43;3.70;;;21.00;21.30;;;;;;2236894;62;20434;-72
2022/11/21 02:28:26;0.00;0.00;0.62;0.00;0.00;0.62;4.43;3.60;;;21.00;21.30;;;;;;2235713;62;20366;-74
2022/11/21 02:31:11;0.00;0.00;0.62;0.00;0.00;0.62;3.87;3.47;;;21.00;21.30;;;;;;2233753;62;20877;-72
2022/11/21 02:33:55;0.00;0.00;0.62;0.00;0.00;0.62;4.87;4.07;;;21.00;21.30;;;;;;2236430;62;20895;-71
2022/11/21 02:36:44;0.00;0.00;0.62;0.00;0.00;0.62;4.57;4.10;;;21.00;21.30;;;;;;2236427;62;20434;-72
2022/11/21 02:39:32;0.00;0.00;0.62;0.00;0.00;0.62;4.43;3.73;;;20.90;21.20;;;;;;2237016;62;20354;-74
2022/11/21 02:42:27;0.00;0.00;0.62;0.00;0.00;0.62;4.10;3.70;;;20.90;21.20;;;;;;2236012;61;20799;-74
2022/11/21 02:45:18;0.00;0.00;0.62;0.00;0.00;0.62;4.50;3.77;;;20.90;21.20;;;;;;2236478;62;20851;-72
2022/11/21 02:48:04;0.00;0.00;0.62;0.00;0.00;0.62;4.90;3.90;;;20.90;21.20;;;;;;2236821;62;20393;-72
2022/11/21 02:50:48;0.00;0.00;0.62;0.00;0.00;0.62;4.63;3.83;;;20.90;21.20;;;;;;2236098;62;20449;-71
2022/11/21 02:53:33;0.00;0.00;0.62;0.00;0.00;0.62;5.10;4.37;;;20.80;21.10;;;;;;2237499;62;20818;-72
2022/11/21 02:56:18;0.00;0.00;0.62;0.00;0.00;0.62;5.90;4.23;;;20.80;21.10;;;;;;2237055;62;20864;-72
2022/11/21 02:59:04;0.00;0.00;0.62;0.00;0.00;0.62;4.50;4.10;;;20.80;21.10;;;;;;2236472;62;20759;-73
2022/11/21 03:01:48;0.00;0.00;0.62;0.00;0.00;0.62;4.57;4.07;;;20.80;21.20;;;;;;2237301;61;20383;-70
2022/11/21 03:04:33;0.00;0.00;0.62;0.00;0.00;0.62;5.03;4.37;;;20.80;21.20;;;;;;2236745;62;20370;-71
2022/11/21 03:07:18;0.00;0.00;0.62;0.00;0.00;0.62;4.77;4.37;;;20.80;21.20;;;;;;2236909;62;20378;-74
2022/11/21 03:10:03;0.00;0.00;0.62;0.00;0.00;0.62;5.10;4.60;;;20.70;21.10;;;;;;2237154;62;20371;-72
2022/11/21 03:12:48;0.00;0.00;0.62;0.00;0.00;0.62;5.43;4.60;;;20.70;21.10;;;;;;2235700;62;20906;-74
2022/11/21 03:15:35;0.00;0.00;0.62;0.00;0.00;0.62;4.80;4.33;;;20.70;21.10;;;;;;2236853;62;20390;-72
2022/11/21 03:18:19;0.00;0.00;0.62;0.00;0.00;0.62;4.50;4.10;;;20.70;21.10;;;;;;2236390;62;20967;-74
2022/11/21 03:21:04;0.00;0.00;0.62;0.00;0.00;0.62;5.27;4.37;;;20.70;21.20;;;;;;2235808;62;20910;-72
2022/11/21 03:23:49;0.00;0.00;0.62;0.00;0.00;0.62;3.93;3.57;;;20.60;21.00;;;;;;2236713;62;20367;-74
2022/11/21 03:26:33;0.00;0.00;0.62;0.00;0.00;0.62;4.70;4.20;;;20.60;21.00;;;;;;2236141;62;20823;-72
2022/11/21 03:29:18;0.00;0.00;0.62;0.00;0.00;0.62;4.60;4.10;;;20.60;21.00;;;;;;2233424;62;20947;-72
2022/11/21 03:32:04;0.00;0.00;0.62;0.00;0.00;0.62;5.43;4.50;;;20.60;21.00;;;;;;2237118;62;20433;-72
2022/11/21 03:34:49;0.00;0.00;0.62;0.00;0.00;0.62;5.53;4.53;;;20.50;21.00;;;;;;2235970;62;21016;-71
2022/11/21 03:37:34;0.00;0.00;0.62;0.00;0.00;0.62;5.53;4.80;;;20.50;21.00;;;;;;2236972;62;20437;-74
2022/11/21 03:40:19;0.00;0.00;0.62;0.00;0.00;0.62;4.93;4.40;;;20.50;21.00;;;;;;2233859;62;20386;-72
2022/11/21 03:43:05;0.00;0.00;0.62;0.00;0.00;0.62;5.30;4.53;;;20.50;21.00;;;;;;2235991;62;20939;-73
2022/11/21 03:45:49;0.00;0.00;0.62;0.00;0.00;0.62;5.00;4.50;;;20.50;21.00;;;;;;2233722;62;20434;-73
2022/11/21 03:48:35;0.00;0.00;0.62;0.00;0.00;0.62;5.83;5.23;;;20.40;20.90;;;;;;2236354;62;20385;-72
2022/11/21 03:51:20;0.00;0.00;0.62;0.00;0.00;0.62;5.97;5.17;;;20.40;20.90;;;;;;2236290;62;20391;-72
2022/11/21 03:54:06;0.00;0.00;0.62;0.00;0.00;0.62;6.07;5.00;;;20.40;20.90;;;;;;2236826;62;20382;-74
2022/11/21 03:56:51;0.00;0.00;0.62;0.00;0.00;0.62;5.57;4.90;;;20.30;20.80;;;;;;2235694;62;20462;-71
2022/11/21 03:59:36;0.00;0.00;0.62;0.00;0.00;0.62;5.10;4.23;;;20.30;20.80;;;;;;2236711;62;20459;-74
2022/11/21 04:02:21;0.00;0.00;0.62;0.00;0.00;0.62;5.90;5.30;;;20.30;20.80;;;;;;2236615;62;20808;-74
2022/11/21 04:05:08;0.00;0.00;0.62;0.00;0.00;0.62;5.77;4.67;;;20.30;20.90;;;;;;2235862;62;20371;-75
2022/11/21 04:07:53;0.00;0.00;0.62;0.00;0.00;0.62;5.43;4.50;;;20.30;20.90;;;;;;2233645;62;20766;-70
2022/11/21 04:10:38;0.00;0.00;0.62;0.00;0.00;0.62;5.10;4.60;;;20.20;20.80;;;;;;2236064;62;20512;-73
2022/11/21 04:13:23;0.00;0.00;0.62;0.00;0.00;0.62;5.53;5.03;;;20.20;20.80;;;;;;2236349;62;20366;-72
2022/11/21 04:16:08;0.00;0.00;0.62;0.00;0.00;0.62;5.83;5.23;;;20.20;20.80;;;;;;2236669;62;20410;-70
2022/11/21 04:18:53;0.00;0.00;0.62;0.00;0.00;0.62;6.20;5.47;;;20.20;20.80;;;;;;2232869;61;20422;-71
2022/11/21 04:21:39;0.00;0.00;0.62;0.00;0.00;0.62;5.40;4.90;;;20.10;20.70;;;;;;2236745;62;20390;-72
2022/11/21 04:24:24;0.00;0.00;0.62;0.00;0.00;0.62;5.53;4.97;;;20.10;20.70;;;;;;2236460;62;20421;-71
2022/11/21 04:27:08;0.00;0.00;0.62;0.00;0.00;0.62;5.43;4.80;;;20.10;20.70;;;;;;2235398;62;20414;-72
2022/11/21 04:29:53;0.00;0.00;0.62;0.00;0.00;0.62;6.17;5.27;;;20.10;20.70;;;;;;2233163;62;20371;-71
2022/11/21 04:32:37;0.00;0.00;0.62;0.00;0.00;0.62;5.40;4.90;;;20.00;20.70;;;;;;2235917;62;20442;-72
2022/11/21 04:35:24;0.00;0.00;0.62;0.00;0.00;0.62;5.40;4.90;;;20.00;20.70;;;;;;2248658;62;20467;-72
2022/11/21 04:38:11;0.00;0.00;0.62;0.00;0.00;0.62;4.97;4.40;;;20.00;20.70;;;;;;2236390;62;20398;-73
2022/11/21 04:40:56;0.00;0.00;0.62;0.00;0.00;0.62;5.80;5.30;;;20.00;21.20;;;;;;2235495;62;20394;-69
2022/11/21 04:43:40;0.00;0.00;0.62;0.00;0.00;0.62;5.80;5.13;;;19.90;20.70;;;;;;2236282;62;20875;-72
2022/11/21 04:46:25;0.00;0.00;0.62;0.00;0.00;0.62;5.67;4.70;;;19.90;20.70;;;;;;2233344;62;20446;-72
2022/11/21 04:49:10;0.00;0.00;0.62;0.00;0.00;0.62;5.63;5.00;;;19.90;20.70;;;;;;2232521;62;20370;-70
2022/11/21 04:51:55;0.00;0.00;0.62;0.00;0.00;0.62;6.20;5.60;;;19.90;20.70;;;;;;2236456;62;20478;-73
2022/11/21 04:54:41;0.00;0.00;0.62;0.00;0.00;0.62;5.53;5.07;;;19.80;20.60;;;;;;2235857;62;20903;-69
2022/11/21 04:57:27;0.00;0.00;0.62;0.00;0.00;0.62;5.77;4.97;;;19.80;20.60;;;;;;2235705;62;20389;-73
2022/11/21 05:00:15;0.00;0.00;0.62;0.00;0.00;0.62;5.50;5.00;;;19.80;20.60;;;;;;2236365;62;20422;-71
2022/11/21 05:03:04;0.00;0.00;0.62;0.00;0.00;0.62;6.30;5.70;;;19.80;20.60;;;;;;2232404;62;20362;-71
2022/11/21 05:05:49;0.00;0.00;0.62;0.00;0.00;0.62;6.67;5.90;;;19.80;20.60;;;;;;2236061;62;20430;-70
2022/11/21 05:08:33;0.00;0.00;0.62;0.00;0.00;0.62;5.40;4.90;;;19.70;20.50;;;;;;2236342;62;20466;-69
2022/11/21 05:14:39;0.00;0.00;0.62;0.00;0.00;0.62;5.60;5.00;;;19.70;20.60;;;;;;2231388;62;20929;-73
2022/11/21 05:17:24;0.00;0.00;0.62;0.00;0.00;0.62;7.50;5.67;;;19.70;20.60;;;;;;2235691;62;20442;-74
2022/11/21 05:20:10;0.00;0.00;0.62;0.00;0.00;0.62;5.03;4.50;;;19.70;20.60;;;;;;2235702;62;20370;-72
2022/11/21 05:22:55;0.00;0.00;0.62;0.00;0.00;0.62;6.70;6.03;;;19.60;20.60;;;;;;2233350;62;20365;-73
2022/11/21 05:25:39;0.00;0.00;0.62;0.00;0.00;0.62;6.60;5.50;;;19.60;20.60;;;;;;2235159;62;20366;-71
2022/11/21 05:28:26;0.00;0.00;0.62;0.00;0.00;0.62;5.33;4.80;;;19.60;20.50;;;;;;2236383;62;20395;-70
2022/11/21 05:31:11;0.00;0.00;0.62;0.00;0.00;0.62;6.83;5.20;;;19.60;20.60;;;;;;2236246;62;20390;-74
2022/11/21 05:33:56;0.00;0.00;0.62;0.00;0.00;0.62;6.23;5.40;;;19.50;20.50;;;;;;2235489;62;20414;-71
2022/11/21 05:36:40;0.00;0.00;0.62;0.00;0.00;0.62;6.10;5.37;;;19.50;20.50;;;;;;2236244;62;20394;-74
2022/11/21 05:39:26;0.00;0.00;0.62;0.00;0.00;0.62;5.63;5.03;;;19.40;20.50;;;;;;2236064;62;20492;-73
2022/11/21 05:42:11;0.00;0.00;0.62;0.00;0.00;0.62;5.43;4.97;;;19.40;20.50;;;;;;2235907;62;20393;-70
2022/11/21 05:44:57;0.00;0.00;0.62;0.00;0.00;0.62;5.87;5.27;;;19.40;20.50;;;;;;2236439;62;20422;-75
2022/11/21 05:47:42;0.00;0.00;0.62;0.00;0.00;0.62;5.90;5.10;;;19.40;21.10;;;;;;2235468;62;20367;-72
2022/11/21 05:50:27;0.00;0.00;0.62;0.00;0.00;0.62;5.37;4.87;;;19.40;20.60;;;;;;2236297;62;20369;-72
2022/11/21 05:53:12;0.00;0.00;0.62;0.00;0.00;0.62;5.33;4.80;;;19.30;20.50;;;;;;2236442;62;20382;-71
2022/11/21 05:56:03;0.00;0.00;0.62;0.00;0.00;0.62;5.70;5.20;;;19.30;20.50;;;;;;2232096;62;20362;-71
2022/11/21 05:58:47;0.00;0.00;0.62;0.00;0.00;0.62;6.63;5.07;;;19.30;20.50;;;;;;2236201;62;20438;-73
2022/11/21 06:04:37;0.00;0.00;0.62;0.00;0.00;0.62;6.43;4.90;;;19.30;20.60;;;;;;2235974;62;20426;-70
2022/11/21 06:07:21;0.00;0.00;0.62;0.00;0.00;0.62;5.37;4.87;;;19.30;20.60;;;;;;2233238;62;20369;-70
2022/11/21 06:10:07;0.00;0.00;0.62;0.00;0.00;0.62;4.93;4.17;;;19.20;20.60;;;;;;2235229;62;20825;-73
2022/11/21 06:12:51;0.00;0.00;0.62;0.00;0.00;0.62;6.60;5.60;;;19.20;20.60;;;;;;2236307;62;20369;-75
2022/11/21 06:15:36;0.00;0.00;0.62;0.00;0.00;0.62;5.30;4.40;;;19.20;20.50;;;;;;2236321;62;20362;-64
2022/11/21 06:18:22;0.00;0.00;0.62;0.00;0.00;0.62;5.47;4.77;;;19.20;20.50;;;;;;2235725;62;20378;-67
2022/11/21 06:21:11;0.00;0.00;0.62;0.00;0.00;0.62;5.73;4.27;;;19.20;20.60;;;;;;2236233;62;20382;-68
2022/11/21 06:23:57;0.00;0.00;0.62;0.00;0.00;0.62;5.20;4.70;;;19.20;20.60;;;;;;2235787;62;20447;-66
2022/11/21 06:26:42;0.00;0.00;0.62;0.00;0.00;0.62;5.70;5.07;;;19.10;20.50;;;;;;2250082;62;20370;-68
2022/11/21 06:29:27;0.00;0.00;0.62;0.00;0.00;0.62;5.00;4.50;;;19.10;20.60;;;;;;2233145;62;20374;-67
2022/11/21 06:32:14;0.00;0.00;0.62;0.00;0.00;0.62;5.47;4.50;;;19.10;20.70;;;;;;2235319;62;20394;-62
2022/11/21 06:35:00;0.00;0.00;0.62;0.00;0.00;0.62;4.60;4.10;;;19.10;20.70;;;;;;2236377;62;20370;-67
2022/11/21 06:37:45;0.00;0.00;0.62;0.00;0.00;0.62;5.13;4.40;;;19.10;20.70;;;;;;2234488;61;20440;-67
2022/11/21 06:40:30;0.00;0.00;0.62;0.00;0.00;0.62;7.23;4.70;;;19.10;20.70;;;;;;2235693;62;20495;-65
2022/11/21 06:43:14;0.00;0.00;0.62;0.00;0.00;0.62;5.43;4.37;;;19.10;20.70;;;;;;2236799;62;20969;-63
2022/11/21 06:46:02;0.00;0.00;0.62;0.00;0.00;0.62;5.87;5.07;;;19.10;20.80;;;;;;2236470;62;20405;-69
2022/11/21 06:48:46;0.00;0.00;0.62;0.00;0.00;0.62;5.20;4.23;;;19.00;20.70;;;;;;2236361;62;20405;-68
2022/11/21 06:51:32;0.00;0.00;0.62;0.00;0.00;0.62;4.90;4.40;;;19.00;20.80;;;;;;2236863;62;20807;-63
2022/11/21 06:54:17;0.00;0.00;0.62;0.00;0.00;0.62;5.30;4.80;;;19.00;20.80;;;;;;2235872;62;20370;-65
2022/11/21 06:57:02;0.00;0.00;0.62;0.00;0.00;0.62;4.20;3.80;;;19.00;20.80;;;;;;2236785;62;20449;-63
2022/11/21 06:59:46;0.00;0.00;0.62;0.00;0.00;0.62;5.23;4.30;;;19.00;20.80;;;;;;2236917;62;20374;-63
2022/11/21 07:02:31;0.00;0.00;0.62;0.00;0.00;0.62;4.80;4.07;;;19.00;20.80;;;;;;2235839;62;20394;-69
2022/11/21 07:05:16;0.00;0.00;0.62;0.00;0.00;0.62;5.00;4.50;;;19.00;20.80;;;;;;2236985;62;20370;-64
2022/11/21 07:08:03;0.00;0.00;0.62;0.00;0.00;0.62;6.77;4.47;;;19.00;20.90;;;;;;2236343;62;20855;-64
2022/11/21 07:10:48;0.00;0.00;0.62;0.00;0.00;0.62;5.50;3.40;;;19.00;20.90;;;;;;2232887;62;20391;-65
2022/11/21 07:13:33;0.00;0.00;0.62;0.00;0.00;0.62;4.93;4.10;;;19.00;20.90;;;;;;2236810;62;20942;-68
2022/11/21 07:16:18;0.00;0.00;0.62;0.00;0.00;0.62;4.17;3.77;;;18.90;20.80;;;;;;2466365;54;20503;-66
2022/11/21 07:19:03;0.00;0.00;0.62;0.00;0.00;0.62;4.67;4.20;;;18.90;20.80;;;;;;2236411;62;20383;-67
2022/11/21 07:21:48;0.00;0.00;0.62;0.00;0.00;0.62;4.47;3.93;;;18.90;20.80;;;;;;2236411;62;20385;-64
2022/11/21 07:24:35;0.00;0.00;0.62;0.00;0.00;0.62;5.20;4.50;;;18.90;20.80;;;;;;2235863;61;20377;-65
2022/11/21 07:28:10;0.00;0.00;0.62;0.00;0.00;0.62;5.20;4.70;;;18.90;20.80;;;;;;2647019;46;20470;-65
2022/11/21 07:30:58;0.00;0.00;0.62;0.00;0.00;0.62;4.17;3.77;;;18.90;20.80;;;;;;2235721;61;20474;-66
2022/11/21 07:33:47;0.00;0.00;0.62;0.00;0.00;0.62;4.97;4.07;;;18.90;20.80;;;;;;2231095;62;20772;-64
2022/11/21 07:36:35;0.00;0.00;0.62;0.00;0.00;0.62;5.27;4.10;;;18.80;20.80;;;;;;2233578;62;20402;-63
2022/11/21 07:39:21;0.00;0.00;0.62;0.00;0.00;0.62;5.10;4.57;;;18.80;20.80;;;;;;2232572;62;20370;-63
2022/11/21 07:42:12;0.00;0.00;0.62;0.00;0.00;0.62;4.03;3.70;;;18.80;20.90;;;;;;2236503;62;20430;-69
2022/11/21 07:44:57;0.00;0.00;0.62;0.00;0.00;0.62;4.70;3.50;;;18.80;21.00;;;;;;2230195;62;20374;-64
2022/11/21 07:47:44;0.00;0.00;0.62;0.00;0.00;0.62;4.00;3.60;;;18.80;21.20;;;;;;2232772;62;20358;-67
2022/11/21 07:50:30;0.00;0.00;0.62;0.00;0.00;0.62;3.47;3.17;;;18.90;21.30;;;;;;2230719;62;20485;-67
2022/11/21 07:53:15;0.00;0.00;0.62;0.00;0.00;0.62;3.60;3.27;;;18.90;21.30;;;;;;2230043;62;20921;-63
2022/11/21 07:56:01;0.00;0.00;0.62;0.00;0.00;0.62;4.13;3.13;;;18.90;21.40;;;;;;2233285;62;20938;-62
2022/11/21 07:58:50;0.00;0.00;0.62;0.00;0.00;0.62;3.67;3.30;;;18.90;21.30;;;;;;2236648;62;20381;-65
2022/11/21 08:01:36;0.00;0.00;0.62;0.00;0.00;0.62;3.40;2.80;;;18.90;21.40;;;;;;2232480;62;20422;-64
2022/11/21 08:04:21;0.00;0.00;0.62;0.00;0.00;0.62;3.40;2.97;;;18.90;21.40;;;;;;2233190;62;20370;-66
2022/11/21 08:07:06;0.00;0.00;0.62;0.00;0.00;0.62;3.40;2.73;;;19.00;21.40;;;;;;2235288;61;20381;-64
2022/11/21 08:09:51;0.00;0.00;0.62;0.00;0.00;0.62;3.00;2.70;;;19.00;21.40;;;;;;2306143;54;20422;-63
2022/11/21 08:12:36;0.00;0.00;0.62;0.00;0.00;0.62;3.23;2.80;;;19.00;21.40;;;;;;2306969;54;20907;-62
2022/11/21 08:15:23;0.00;0.00;0.62;0.00;0.00;0.62;2.93;2.67;;;19.10;21.50;;;;;;2235674;62;20438;-65
2022/11/21 08:18:10;0.00;0.00;0.62;0.00;0.00;0.62;3.07;2.63;;;19.10;21.50;;;;;;2236104;62;20450;-64
2022/11/21 08:20:55;0.00;0.00;0.62;0.00;0.00;0.62;3.60;3.10;;;19.10;21.60;;;;;;2236269;62;20442;-65
2022/11/21 08:23:39;0.00;0.00;0.62;0.00;0.00;0.62;2.83;2.37;;;19.20;21.60;;;;;;2234787;61;20373;-64
2022/11/21 08:26:23;0.00;0.00;0.62;0.00;0.00;0.62;2.60;2.40;;;19.20;21.60;;;;;;2234068;61;20417;-65
2022/11/21 08:29:09;0.00;0.00;0.62;0.00;0.00;0.62;3.43;2.60;;;19.20;21.60;;;;;;2239791;61;20446;-66
2022/11/21 08:31:55;0.00;0.00;0.62;0.00;0.00;0.62;3.17;2.30;;;19.30;21.70;;;;;;2238787;61;20441;-67
2022/11/21 08:34:40;0.00;0.00;0.62;0.00;0.00;0.62;4.00;2.50;;;19.30;21.70;;;;;;2240754;61;20373;-64
2022/11/21 08:37:26;0.00;0.00;0.62;0.00;0.00;0.62;3.10;2.50;;;19.30;21.70;;;;;;2239011;61;20473;-64
2022/11/21 08:40:11;0.00;0.00;0.62;0.00;0.00;0.62;3.30;2.80;;;19.40;21.80;;;;;;2238821;61;20370;-65
2022/11/21 08:42:57;0.00;0.00;0.62;0.00;0.00;0.62;3.23;2.83;;;19.40;21.80;;;;;;2236190;62;20947;-61
2022/11/21 08:45:42;0.00;0.00;0.62;0.00;0.00;0.62;2.80;2.20;;;19.40;21.80;;;;;;2466341;54;20453;-64
2022/11/21 08:48:29;0.00;0.00;0.62;0.00;0.00;0.62;3.43;2.53;;;19.50;21.90;;;;;;2236484;62;20777;-70
2022/11/21 08:51:14;0.00;0.00;0.62;0.00;0.00;0.62;2.70;2.20;;;19.50;21.90;;;;;;2235918;62;20387;-62
2022/11/21 08:53:59;0.00;0.00;0.62;0.00;0.00;0.62;3.10;2.33;;;19.50;21.90;;;;;;2232857;62;20361;-67
2022/11/21 08:56:44;0.00;0.00;0.62;0.00;0.00;0.62;2.40;2.20;;;19.60;22.00;;;;;;2236397;62;20389;-63
2022/11/21 08:59:29;0.00;0.00;0.62;0.00;0.00;0.62;3.20;2.40;;;19.60;22.00;;;;;;2235305;62;20370;-66
2022/11/21 09:02:13;0.00;0.00;0.62;0.00;0.00;0.62;3.03;2.23;;;19.70;22.10;;;;;;2236255;62;20415;-67
2022/11/21 09:04:59;0.00;0.00;0.62;0.00;0.00;0.62;3.20;2.40;;;19.70;22.10;;;;;;2236421;62;20463;-64
2022/11/21 09:07:45;0.00;0.00;0.62;0.00;0.00;0.62;3.10;2.50;;;19.70;22.10;;;;;;2235360;62;20871;-62
2022/11/21 09:10:29;0.00;0.00;0.62;0.00;0.00;0.62;2.47;1.90;;;19.80;22.10;;;;;;2236236;62;20434;-60
2022/11/21 09:13:14;0.00;0.00;0.62;0.00;0.00;0.62;2.20;1.83;;;19.80;22.20;;;;;;2236087;62;20461;-64
2022/11/21 09:19:03;0.00;0.00;0.62;0.00;0.00;0.62;2.37;1.77;;;19.90;22.20;;;;;;2236406;61;20373;-68
2022/11/21 09:21:51;0.00;0.00;0.62;0.00;0.00;0.62;3.27;2.30;;;19.90;22.20;;;;;;2239177;61;20470;-64
2022/11/21 09:24:35;0.00;0.00;0.62;0.00;0.00;0.62;2.57;2.23;;;20.00;22.30;;;;;;2240076;61;20374;-66
2022/11/21 09:27:20;0.00;0.00;0.62;0.00;0.00;0.62;2.50;2.13;;;20.00;22.30;;;;;;2239957;61;20365;-62
2022/11/21 09:30:07;0.00;0.00;0.62;0.00;0.00;0.62;2.37;2.10;;;20.00;22.30;;;;;;2238817;61;20433;-68
2022/11/21 09:32:52;0.00;0.00;0.62;0.00;0.00;0.62;3.50;2.53;;;20.10;22.30;;;;;;2240102;61;20372;-62
2022/11/21 09:35:36;0.00;0.00;0.62;0.00;0.00;0.62;2.77;2.30;;;20.10;22.30;;;;;;2239430;61;20370;-67
2022/11/21 09:38:25;0.00;0.00;0.62;0.00;0.00;0.62;2.33;2.03;;;20.20;22.40;;;;;;2239016;61;20409;-64
2022/11/21 09:44:51;0.00;0.00;0.62;0.00;0.00;0.62;3.10;2.30;;;20.30;22.40;;;;;;2239231;61;20349;-68
2022/11/21 09:47:41;0.00;0.00;0.62;0.00;0.00;0.62;2.53;2.30;;;20.30;22.30;;;;;;2239831;61;20760;-64
2022/11/21 09:50:31;0.00;0.00;0.62;0.00;0.00;0.62;2.60;2.27;;;20.40;22.30;;;;;;2239356;61;20393;-65
2022/11/21 09:53:21;0.00;0.00;0.62;0.00;0.00;0.62;2.90;2.07;;;20.40;22.30;;;;;;2239630;61;20401;-66
2022/11/21 09:56:12;0.00;0.00;0.62;0.00;0.00;0.62;3.20;2.50;;;20.50;22.40;;;;;;2235169;61;20394;-64
2022/11/21 09:59:13;0.00;0.00;0.62;0.00;0.00;0.62;3.00;2.23;;;20.50;22.40;;;;;;2235408;62;20453;-64
2022/11/21 10:01:58;0.00;0.00;0.62;0.00;0.00;0.62;2.53;2.13;;;20.50;22.40;;;;;;2235898;62;20850;-66
2022/11/21 10:04:44;0.00;0.00;0.62;0.00;0.00;0.62;2.60;2.00;;;20.60;22.50;;;;;;2235676;62;20370;-62
2022/11/21 10:07:32;0.00;0.00;0.62;0.00;0.00;0.62;2.37;2.17;;;20.60;22.40;;;;;;2235523;62;20413;-60
2022/11/21 10:10:30;0.00;0.00;0.62;0.00;0.00;0.62;2.83;2.40;;;20.70;22.50;;;;;;2235749;62;20379;-64
2022/11/21 10:13:31;0.00;0.00;0.62;0.00;0.00;0.62;2.60;2.20;;;20.70;22.50;;;;;;2233369;62;20418;-62
2022/11/21 10:16:25;0.00;0.00;0.62;0.00;0.00;0.62;2.60;2.30;;;20.80;22.50;;;;;;2236959;62;20414;-64
2022/11/21 10:19:36;0.00;0.00;0.62;0.00;0.00;0.62;2.53;1.80;;;20.80;22.50;;;;;;2237106;61;20384;-61
2022/11/21 10:22:50;0.00;0.00;0.62;0.00;0.00;0.62;2.60;1.90;;;20.80;22.60;;;;;;2240271;61;20493;-60
2022/11/21 10:25:37;0.00;0.00;0.62;0.00;0.00;0.62;2.43;1.63;;;20.90;22.70;;;;;;2241198;61;20881;-61
2022/11/21 10:28:31;0.00;0.00;0.62;0.00;0.00;0.62;3.00;2.40;;;20.90;22.80;;;;;;2240693;61;20937;-63
2022/11/21 10:31:17;0.00;0.00;0.62;0.00;0.00;0.62;2.23;2.03;;;21.00;22.80;;;;;;2240787;61;20913;-67
2022/11/21 10:34:08;0.00;0.00;0.62;0.00;0.00;0.62;2.30;1.93;;;21.00;22.80;;;;;;2237615;61;20361;-61
2022/11/21 10:36:58;0.00;0.00;0.62;0.00;0.00;0.62;2.30;1.90;;;21.10;22.90;;;;;;2240827;61;20397;-66
2022/11/21 10:39:46;0.00;0.00;0.62;0.00;0.00;0.62;2.70;2.10;;;21.00;22.70;;;;;;2241056;61;20362;-65
2022/11/21 10:42:37;0.00;0.00;0.62;0.00;0.00;0.62;3.23;2.03;;;21.10;22.80;;;;;;2237239;61;20428;-63
2022/11/21 10:45:24;0.00;0.00;0.62;0.00;0.00;0.62;2.30;1.77;;;21.10;22.70;;;;;;2238409;61;20380;-65
2022/11/21 10:48:09;0.00;0.00;0.62;0.00;0.00;0.62;2.67;2.03;;;21.20;22.70;;;;;;2240167;61;20365;-64
2022/11/21 10:51:26;0.00;0.00;0.62;0.00;0.00;0.62;2.40;1.90;;;21.20;22.70;;;;;;2325897;54;20386;-63
2022/11/21 10:54:31;0.00;0.00;0.62;0.00;0.00;0.62;2.10;1.80;;;21.30;22.70;;;;;;2237226;62;20371;-65
2022/11/21 10:57:18;0.00;0.00;0.62;0.00;0.00;0.62;2.30;1.90;;;21.30;22.60;;;;;;2235946;62;20842;-64
2022/11/21 11:00:21;0.00;0.00;0.62;0.00;0.00;0.62;2.60;1.83;;;21.40;22.60;;;;;;2236851;61;20367;-63
2022/11/21 11:03:16;0.00;0.00;0.62;0.00;0.00;0.62;3.20;2.00;;;21.40;22.60;;;;;;2236652;62;20373;-65
2022/11/21 11:06:02;0.00;0.00;0.62;0.00;0.00;0.62;2.37;2.00;;;21.50;22.60;;;;;;2236518;62;20417;-64
2022/11/21 11:08:51;0.00;0.00;0.62;0.00;0.00;0.62;2.20;1.83;;;21.50;22.50;;;;;;2236490;62;20418;-66
2022/11/21 11:11:36;0.00;0.00;0.62;0.00;0.00;0.62;2.13;1.77;;;21.60;22.50;;;;;;2236215;62;20437;-66